sensor_id;sensor_type;location;lat;lon;timestamp;P1;P2;P0
31330;PMS5003;34067;39.548;-76.088;2024-03-08T00:00:41;1;1;
31330;PMS5003;34067;39.548;-76.088;2024-03-08T00:03:09;0;0;
31330;PMS5003;34067;39.548;-76.088;2024-03-08T00:05:37;1;1;
31330;PMS5003;34067;39.548;-76.088;2024-03-08T00:08:06;0;0;
31330;PMS5003;34067;39.548;-76.088;2024-03-08T00:10:34;1;1;
31330;PMS5003;34067;39.548;-76.088;2024-03-08T00:13:02;1;1;
31330;PMS5003;34067;39.548;-76.088;2024-03-08T00:15:30;1;1;
31330;PMS5003;34067;39.548;-76.088;2024-03-08T00:17:58;0;0;
31330;PMS5003;34067;39.548;-76.088;2024-03-08T00:20:26;1;1;
31330;PMS5003;34067;39.548;-76.088;2024-03-08T00:22:54;1;1;
31330;PMS5003;34067;39.548;-76.088;2024-03-08T00:25:22;1;1;
31330;PMS5003;34067;39.548;-76.088;2024-03-08T00:27:50;0;0;
31330;PMS5003;34067;39.548;-76.088;2024-03-08T00:30:18;2;2;
31330;PMS5003;34067;39.548;-76.088;2024-03-08T00:32:46;1;1;
31330;PMS5003;34067;39.548;-76.088;2024-03-08T00:35:14;1;1;
31330;PMS5003;34067;39.548;-76.088;2024-03-08T00:37:42;1;1;
31330;PMS5003;34067;39.548;-76.088;2024-03-08T00:40:10;2;2;
31330;PMS5003;34067;39.548;-76.088;2024-03-08T00:42:39;3;2;
31330;PMS5003;34067;39.548;-76.088;2024-03-08T00:45:08;1;1;
31330;PMS5003;34067;39.548;-76.088;2024-03-08T00:47:36;2;1;
31330;PMS5003;34067;39.548;-76.088;2024-03-08T00:50:04;3;2;
31330;PMS5003;34067;39.548;-76.088;2024-03-08T00:52:33;1;1;
31330;PMS5003;34067;39.548;-76.088;2024-03-08T00:55:01;1;1;
31330;PMS5003;34067;39.548;-76.088;2024-03-08T00:57:29;1;1;
31330;PMS5003;34067;39.548;-76.088;2024-03-08T00:59:57;1;1;
31330;PMS5003;34067;39.548;-76.088;2024-03-08T01:02:25;1;0;
31330;PMS5003;34067;39.548;-76.088;2024-03-08T01:04:53;0;0;
31330;PMS5003;34067;39.548;-76.088;2024-03-08T01:07:21;1;1;
31330;PMS5003;34067;39.548;-76.088;2024-03-08T01:09:49;1;1;
31330;PMS5003;34067;39.548;-76.088;2024-03-08T01:12:17;2;2;
31330;PMS5003;34067;39.548;-76.088;2024-03-08T01:14:45;3;2;
31330;PMS5003;34067;39.548;-76.088;2024-03-08T01:17:13;2;2;
31330;PMS5003;34067;39.548;-76.088;2024-03-08T01:19:41;3;2;
31330;PMS5003;34067;39.548;-76.088;2024-03-08T01:22:09;3;2;
31330;PMS5003;34067;39.548;-76.088;2024-03-08T01:24:37;2;2;
31330;PMS5003;34067;39.548;-76.088;2024-03-08T01:27:06;2;2;
31330;PMS5003;34067;39.548;-76.088;2024-03-08T01:29:34;2;2;
31330;PMS5003;34067;39.548;-76.088;2024-03-08T01:32:02;2;2;
31330;PMS5003;34067;39.548;-76.088;2024-03-08T01:34:30;2;1;
31330;PMS5003;34067;39.548;-76.088;2024-03-08T01:36:58;2;2;
31330;PMS5003;34067;39.548;-76.088;2024-03-08T01:39:26;1;1;
31330;PMS5003;34067;39.548;-76.088;2024-03-08T01:41:54;2;2;
31330;PMS5003;34067;39.548;-76.088;2024-03-08T01:44:22;2;2;
31330;PMS5003;34067;39.548;-76.088;2024-03-08T01:46:50;1;1;
31330;PMS5003;34067;39.548;-76.088;2024-03-08T01:49:20;2;2;
31330;PMS5003;34067;39.548;-76.088;2024-03-08T01:51:49;2;2;
31330;PMS5003;34067;39.548;-76.088;2024-03-08T01:54:17;1;1;
31330;PMS5003;34067;39.548;-76.088;2024-03-08T01:56:47;2;2;
31330;PMS5003;34067;39.548;-76.088;2024-03-08T01:59:15;1;1;
31330;PMS5003;34067;39.548;-76.088;2024-03-08T02:01:44;2;2;
31330;PMS5003;34067;39.548;-76.088;2024-03-08T02:04:12;1;1;
31330;PMS5003;34067;39.548;-76.088;2024-03-08T02:06:40;1;1;
31330;PMS5003;34067;39.548;-76.088;2024-03-08T02:09:08;1;1;
31330;PMS5003;34067;39.548;-76.088;2024-03-08T02:11:36;1;1;
31330;PMS5003;34067;39.548;-76.088;2024-03-08T02:14:04;1;1;
31330;PMS5003;34067;39.548;-76.088;2024-03-08T02:16:32;1;1;
31330;PMS5003;34067;39.548;-76.088;2024-03-08T02:19:00;2;2;
31330;PMS5003;34067;39.548;-76.088;2024-03-08T02:21:28;3;2;
31330;PMS5003;34067;39.548;-76.088;2024-03-08T02:23:57;3;3;
31330;PMS5003;34067;39.548;-76.088;2024-03-08T02:26:25;2;2;
31330;PMS5003;34067;39.548;-76.088;2024-03-08T02:28:54;3;2;
31330;PMS5003;34067;39.548;-76.088;2024-03-08T02:31:21;1;1;
31330;PMS5003;34067;39.548;-76.088;2024-03-08T02:33:49;2;2;
31330;PMS5003;34067;39.548;-76.088;2024-03-08T02:36:17;2;2;
31330;PMS5003;34067;39.548;-76.088;2024-03-08T02:38:46;2;2;
31330;PMS5003;34067;39.548;-76.088;2024-03-08T02:41:14;3;3;
31330;PMS5003;34067;39.548;-76.088;2024-03-08T02:43:42;6;6;
31330;PMS5003;34067;39.548;-76.088;2024-03-08T02:46:10;4;4;
31330;PMS5003;34067;39.548;-76.088;2024-03-08T02:48:38;6;6;
31330;PMS5003;34067;39.548;-76.088;2024-03-08T02:51:06;4;4;
31330;PMS5003;34067;39.548;-76.088;2024-03-08T02:53:34;3;3;
31330;PMS5003;34067;39.548;-76.088;2024-03-08T02:56:02;2;2;
31330;PMS5003;34067;39.548;-76.088;2024-03-08T02:58:30;2;2;
31330;PMS5003;34067;39.548;-76.088;2024-03-08T03:00:58;3;2;
31330;PMS5003;34067;39.548;-76.088;2024-03-08T03:03:26;3;3;
31330;PMS5003;34067;39.548;-76.088;2024-03-08T03:05:55;2;2;
31330;PMS5003;34067;39.548;-76.088;2024-03-08T03:08:23;4;3;
31330;PMS5003;34067;39.548;-76.088;2024-03-08T03:10:51;2;2;
31330;PMS5003;34067;39.548;-76.088;2024-03-08T03:13:19;3;3;
31330;PMS5003;34067;39.548;-76.088;2024-03-08T03:15:47;3;3;
31330;PMS5003;34067;39.548;-76.088;2024-03-08T03:18:15;3;3;
31330;PMS5003;34067;39.548;-76.088;2024-03-08T03:20:43;3;3;
31330;PMS5003;34067;39.548;-76.088;2024-03-08T03:23:11;3;3;
31330;PMS5003;34067;39.548;-76.088;2024-03-08T03:25:39;2;2;
31330;PMS5003;34067;39.548;-76.088;2024-03-08T03:28:07;3;2;
31330;PMS5003;34067;39.548;-76.088;2024-03-08T03:30:36;3;3;
31330;PMS5003;34067;39.548;-76.088;2024-03-08T03:33:04;5;5;
31330;PMS5003;34067;39.548;-76.088;2024-03-08T03:35:32;7;7;
31330;PMS5003;34067;39.548;-76.088;2024-03-08T03:38:00;5;5;
31330;PMS5003;34067;39.548;-76.088;2024-03-08T03:40:28;6;6;
31330;PMS5003;34067;39.548;-76.088;2024-03-08T03:42:56;8;8;
31330;PMS5003;34067;39.548;-76.088;2024-03-08T03:45:24;9;9;
31330;PMS5003;34067;39.548;-76.088;2024-03-08T03:47:53;16;16;
31330;PMS5003;34067;39.548;-76.088;2024-03-08T03:50:21;19;18;
31330;PMS5003;34067;39.548;-76.088;2024-03-08T03:52:49;35;34;
31330;PMS5003;34067;39.548;-76.088;2024-03-08T03:55:16;42;40;
31330;PMS5003;34067;39.548;-76.088;2024-03-08T03:57:45;34;33;
31330;PMS5003;34067;39.548;-76.088;2024-03-08T04:00:13;34;34;
31330;PMS5003;34067;39.548;-76.088;2024-03-08T04:02:41;4;4;
31330;PMS5003;34067;39.548;-76.088;2024-03-08T04:05:09;3;3;
31330;PMS5003;34067;39.548;-76.088;2024-03-08T04:07:37;3;3;
31330;PMS5003;34067;39.548;-76.088;2024-03-08T04:10:06;3;3;
31330;PMS5003;34067;39.548;-76.088;2024-03-08T04:12:35;5;5;
31330;PMS5003;34067;39.548;-76.088;2024-03-08T04:15:04;3;3;
31330;PMS5003;34067;39.548;-76.088;2024-03-08T04:17:32;5;5;
31330;PMS5003;34067;39.548;-76.088;2024-03-08T04:20:00;3;3;
31330;PMS5003;34067;39.548;-76.088;2024-03-08T04:22:28;4;4;
31330;PMS5003;34067;39.548;-76.088;2024-03-08T04:24:57;4;4;
31330;PMS5003;34067;39.548;-76.088;2024-03-08T04:27:25;3;3;
31330;PMS5003;34067;39.548;-76.088;2024-03-08T04:29:53;6;5;
31330;PMS5003;34067;39.548;-76.088;2024-03-08T04:32:21;5;5;
31330;PMS5003;34067;39.548;-76.088;2024-03-08T04:34:49;5;5;
31330;PMS5003;34067;39.548;-76.088;2024-03-08T04:37:17;5;4;
31330;PMS5003;34067;39.548;-76.088;2024-03-08T04:39:45;4;4;
31330;PMS5003;34067;39.548;-76.088;2024-03-08T04:42:14;6;5;
31330;PMS5003;34067;39.548;-76.088;2024-03-08T04:44:43;6;6;
31330;PMS5003;34067;39.548;-76.088;2024-03-08T04:47:11;5;4;
31330;PMS5003;34067;39.548;-76.088;2024-03-08T04:49:39;6;5;
31330;PMS5003;34067;39.548;-76.088;2024-03-08T04:52:07;4;4;
31330;PMS5003;34067;39.548;-76.088;2024-03-08T04:54:35;7;5;
31330;PMS5003;34067;39.548;-76.088;2024-03-08T04:57:03;6;5;
31330;PMS5003;34067;39.548;-76.088;2024-03-08T04:59:31;6;6;
31330;PMS5003;34067;39.548;-76.088;2024-03-08T05:02:00;4;4;
31330;PMS5003;34067;39.548;-76.088;2024-03-08T05:04:28;6;6;
31330;PMS5003;34067;39.548;-76.088;2024-03-08T05:06:56;7;5;
31330;PMS5003;34067;39.548;-76.088;2024-03-08T05:09:24;8;7;
31330;PMS5003;34067;39.548;-76.088;2024-03-08T05:11:52;7;7;
31330;PMS5003;34067;39.548;-76.088;2024-03-08T05:14:20;6;6;
31330;PMS5003;34067;39.548;-76.088;2024-03-08T05:16:49;6;6;
31330;PMS5003;34067;39.548;-76.088;2024-03-08T05:19:17;6;5;
31330;PMS5003;34067;39.548;-76.088;2024-03-08T05:21:46;7;7;
31330;PMS5003;34067;39.548;-76.088;2024-03-08T05:24:15;10;9;
31330;PMS5003;34067;39.548;-76.088;2024-03-08T05:26:43;7;6;
31330;PMS5003;34067;39.548;-76.088;2024-03-08T05:29:12;7;7;
31330;PMS5003;34067;39.548;-76.088;2024-03-08T05:31:45;7;7;
31330;PMS5003;34067;39.548;-76.088;2024-03-08T05:34:14;6;5;
31330;PMS5003;34067;39.548;-76.088;2024-03-08T05:36:42;6;6;
31330;PMS5003;34067;39.548;-76.088;2024-03-08T05:39:10;7;6;
31330;PMS5003;34067;39.548;-76.088;2024-03-08T05:41:38;7;6;
31330;PMS5003;34067;39.548;-76.088;2024-03-08T05:44:06;7;6;
31330;PMS5003;34067;39.548;-76.088;2024-03-08T05:46:34;6;5;
31330;PMS5003;34067;39.548;-76.088;2024-03-08T05:49:03;7;7;
31330;PMS5003;34067;39.548;-76.088;2024-03-08T05:51:31;6;6;
31330;PMS5003;34067;39.548;-76.088;2024-03-08T05:53:59;7;7;
31330;PMS5003;34067;39.548;-76.088;2024-03-08T05:56:27;7;7;
31330;PMS5003;34067;39.548;-76.088;2024-03-08T05:58:56;8;7;
31330;PMS5003;34067;39.548;-76.088;2024-03-08T06:03:08;8;7;
31330;PMS5003;34067;39.548;-76.088;2024-03-08T06:05:36;6;5;
31330;PMS5003;34067;39.548;-76.088;2024-03-08T06:08:04;6;6;
31330;PMS5003;34067;39.548;-76.088;2024-03-08T06:10:32;8;7;
31330;PMS5003;34067;39.548;-76.088;2024-03-08T06:13:00;9;9;
31330;PMS5003;34067;39.548;-76.088;2024-03-08T06:15:28;8;7;
31330;PMS5003;34067;39.548;-76.088;2024-03-08T06:17:57;8;7;
31330;PMS5003;34067;39.548;-76.088;2024-03-08T06:20:25;10;10;
31330;PMS5003;34067;39.548;-76.088;2024-03-08T06:22:53;7;7;
31330;PMS5003;34067;39.548;-76.088;2024-03-08T06:25:21;9;8;
31330;PMS5003;34067;39.548;-76.088;2024-03-08T06:27:50;9;8;
31330;PMS5003;34067;39.548;-76.088;2024-03-08T06:30:18;9;8;
31330;PMS5003;34067;39.548;-76.088;2024-03-08T06:32:46;10;9;
31330;PMS5003;34067;39.548;-76.088;2024-03-08T06:35:14;8;7;
31330;PMS5003;34067;39.548;-76.088;2024-03-08T06:37:43;6;6;
31330;PMS5003;34067;39.548;-76.088;2024-03-08T06:40:11;7;6;
31330;PMS5003;34067;39.548;-76.088;2024-03-08T06:42:39;7;7;
31330;PMS5003;34067;39.548;-76.088;2024-03-08T06:45:08;10;9;
31330;PMS5003;34067;39.548;-76.088;2024-03-08T06:47:36;9;7;
31330;PMS5003;34067;39.548;-76.088;2024-03-08T06:50:04;7;6;
31330;PMS5003;34067;39.548;-76.088;2024-03-08T06:52:32;8;7;
31330;PMS5003;34067;39.548;-76.088;2024-03-08T06:55:00;7;7;
31330;PMS5003;34067;39.548;-76.088;2024-03-08T06:57:28;8;8;
31330;PMS5003;34067;39.548;-76.088;2024-03-08T06:59:56;8;7;
31330;PMS5003;34067;39.548;-76.088;2024-03-08T07:02:24;6;6;
31330;PMS5003;34067;39.548;-76.088;2024-03-08T07:04:53;8;8;
31330;PMS5003;34067;39.548;-76.088;2024-03-08T07:07:21;5;5;
31330;PMS5003;34067;39.548;-76.088;2024-03-08T07:09:49;11;9;
31330;PMS5003;34067;39.548;-76.088;2024-03-08T07:12:17;6;6;
31330;PMS5003;34067;39.548;-76.088;2024-03-08T07:14:45;7;6;
31330;PMS5003;34067;39.548;-76.088;2024-03-08T07:17:13;6;6;
31330;PMS5003;34067;39.548;-76.088;2024-03-08T07:19:41;8;8;
31330;PMS5003;34067;39.548;-76.088;2024-03-08T07:22:10;7;7;
31330;PMS5003;34067;39.548;-76.088;2024-03-08T07:24:38;5;5;
31330;PMS5003;34067;39.548;-76.088;2024-03-08T07:27:07;10;8;
31330;PMS5003;34067;39.548;-76.088;2024-03-08T07:29:35;8;8;
31330;PMS5003;34067;39.548;-76.088;2024-03-08T07:32:03;9;8;
31330;PMS5003;34067;39.548;-76.088;2024-03-08T07:34:32;7;7;
31330;PMS5003;34067;39.548;-76.088;2024-03-08T07:37:00;10;9;
31330;PMS5003;34067;39.548;-76.088;2024-03-08T07:39:28;7;6;
31330;PMS5003;34067;39.548;-76.088;2024-03-08T07:41:56;6;6;
31330;PMS5003;34067;39.548;-76.088;2024-03-08T07:44:24;7;7;
31330;PMS5003;34067;39.548;-76.088;2024-03-08T07:46:53;9;9;
31330;PMS5003;34067;39.548;-76.088;2024-03-08T07:49:21;8;8;
31330;PMS5003;34067;39.548;-76.088;2024-03-08T07:51:49;6;6;
31330;PMS5003;34067;39.548;-76.088;2024-03-08T07:54:17;9;8;
31330;PMS5003;34067;39.548;-76.088;2024-03-08T07:56:45;10;9;
31330;PMS5003;34067;39.548;-76.088;2024-03-08T07:59:13;8;8;
31330;PMS5003;34067;39.548;-76.088;2024-03-08T08:01:42;9;9;
31330;PMS5003;34067;39.548;-76.088;2024-03-08T08:04:10;13;13;
31330;PMS5003;34067;39.548;-76.088;2024-03-08T08:06:38;9;8;
31330;PMS5003;34067;39.548;-76.088;2024-03-08T08:09:06;8;8;
31330;PMS5003;34067;39.548;-76.088;2024-03-08T08:11:34;7;7;
31330;PMS5003;34067;39.548;-76.088;2024-03-08T08:14:02;9;8;
31330;PMS5003;34067;39.548;-76.088;2024-03-08T08:16:31;10;7;
31330;PMS5003;34067;39.548;-76.088;2024-03-08T08:18:58;10;8;
31330;PMS5003;34067;39.548;-76.088;2024-03-08T08:21:26;8;7;
31330;PMS5003;34067;39.548;-76.088;2024-03-08T08:23:54;7;7;
31330;PMS5003;34067;39.548;-76.088;2024-03-08T08:26:23;7;7;
31330;PMS5003;34067;39.548;-76.088;2024-03-08T08:28:51;10;9;
31330;PMS5003;34067;39.548;-76.088;2024-03-08T08:31:19;12;12;
31330;PMS5003;34067;39.548;-76.088;2024-03-08T08:33:47;9;8;
31330;PMS5003;34067;39.548;-76.088;2024-03-08T08:36:15;10;9;
31330;PMS5003;34067;39.548;-76.088;2024-03-08T08:38:44;11;9;
31330;PMS5003;34067;39.548;-76.088;2024-03-08T08:41:12;11;8;
31330;PMS5003;34067;39.548;-76.088;2024-03-08T08:43:40;7;7;
31330;PMS5003;34067;39.548;-76.088;2024-03-08T08:46:08;11;9;
31330;PMS5003;34067;39.548;-76.088;2024-03-08T08:48:36;9;9;
31330;PMS5003;34067;39.548;-76.088;2024-03-08T08:51:04;8;8;
31330;PMS5003;34067;39.548;-76.088;2024-03-08T08:53:32;7;7;
31330;PMS5003;34067;39.548;-76.088;2024-03-08T08:56:00;9;9;
31330;PMS5003;34067;39.548;-76.088;2024-03-08T08:58:28;9;8;
31330;PMS5003;34067;39.548;-76.088;2024-03-08T09:00:56;8;8;
31330;PMS5003;34067;39.548;-76.088;2024-03-08T09:03:24;10;10;
31330;PMS5003;34067;39.548;-76.088;2024-03-08T09:05:52;10;8;
31330;PMS5003;34067;39.548;-76.088;2024-03-08T09:08:20;12;9;
31330;PMS5003;34067;39.548;-76.088;2024-03-08T09:10:48;10;10;
31330;PMS5003;34067;39.548;-76.088;2024-03-08T09:13:16;12;8;
31330;PMS5003;34067;39.548;-76.088;2024-03-08T09:15:44;12;11;
31330;PMS5003;34067;39.548;-76.088;2024-03-08T09:18:12;8;7;
31330;PMS5003;34067;39.548;-76.088;2024-03-08T09:20:40;10;9;
31330;PMS5003;34067;39.548;-76.088;2024-03-08T09:23:09;8;8;
31330;PMS5003;34067;39.548;-76.088;2024-03-08T09:25:37;7;7;
31330;PMS5003;34067;39.548;-76.088;2024-03-08T09:28:05;9;9;
31330;PMS5003;34067;39.548;-76.088;2024-03-08T09:30:33;12;8;
31330;PMS5003;34067;39.548;-76.088;2024-03-08T09:33:02;7;7;
31330;PMS5003;34067;39.548;-76.088;2024-03-08T09:35:30;8;7;
31330;PMS5003;34067;39.548;-76.088;2024-03-08T09:37:58;9;7;
31330;PMS5003;34067;39.548;-76.088;2024-03-08T09:40:26;12;12;
31330;PMS5003;34067;39.548;-76.088;2024-03-08T09:42:54;6;6;
31330;PMS5003;34067;39.548;-76.088;2024-03-08T09:45:23;10;9;
31330;PMS5003;34067;39.548;-76.088;2024-03-08T09:47:51;7;6;
31330;PMS5003;34067;39.548;-76.088;2024-03-08T09:50:19;9;9;
31330;PMS5003;34067;39.548;-76.088;2024-03-08T09:52:48;9;8;
31330;PMS5003;34067;39.548;-76.088;2024-03-08T09:55:16;9;8;
31330;PMS5003;34067;39.548;-76.088;2024-03-08T09:57:44;8;8;
31330;PMS5003;34067;39.548;-76.088;2024-03-08T10:00:15;11;8;
31330;PMS5003;34067;39.548;-76.088;2024-03-08T10:02:43;8;8;
31330;PMS5003;34067;39.548;-76.088;2024-03-08T10:05:12;8;7;
31330;PMS5003;34067;39.548;-76.088;2024-03-08T10:07:40;11;11;
31330;PMS5003;34067;39.548;-76.088;2024-03-08T10:10:08;12;9;
31330;PMS5003;34067;39.548;-76.088;2024-03-08T10:12:36;7;6;
31330;PMS5003;34067;39.548;-76.088;2024-03-08T10:15:05;12;11;
31330;PMS5003;34067;39.548;-76.088;2024-03-08T10:17:34;9;7;
31330;PMS5003;34067;39.548;-76.088;2024-03-08T10:20:02;11;11;
31330;PMS5003;34067;39.548;-76.088;2024-03-08T10:22:30;9;9;
31330;PMS5003;34067;39.548;-76.088;2024-03-08T10:24:58;11;11;
31330;PMS5003;34067;39.548;-76.088;2024-03-08T10:27:27;11;11;
31330;PMS5003;34067;39.548;-76.088;2024-03-08T10:29:55;11;11;
31330;PMS5003;34067;39.548;-76.088;2024-03-08T10:32:23;19;17;
31330;PMS5003;34067;39.548;-76.088;2024-03-08T10:34:51;18;17;
31330;PMS5003;34067;39.548;-76.088;2024-03-08T10:37:21;21;20;
31330;PMS5003;34067;39.548;-76.088;2024-03-08T10:39:51;14;14;
31330;PMS5003;34067;39.548;-76.088;2024-03-08T10:42:28;8;8;
31330;PMS5003;34067;39.548;-76.088;2024-03-08T10:45:00;9;8;
31330;PMS5003;34067;39.548;-76.088;2024-03-08T10:47:32;18;17;
31330;PMS5003;34067;39.548;-76.088;2024-03-08T10:50:09;14;14;
31330;PMS5003;34067;39.548;-76.088;2024-03-08T10:52:45;8;8;
31330;PMS5003;34067;39.548;-76.088;2024-03-08T10:55:13;7;6;
31330;PMS5003;34067;39.548;-76.088;2024-03-08T10:57:43;5;5;
31330;PMS5003;34067;39.548;-76.088;2024-03-08T11:00:12;5;4;
31330;PMS5003;34067;39.548;-76.088;2024-03-08T11:02:43;5;5;
31330;PMS5003;34067;39.548;-76.088;2024-03-08T11:05:14;8;7;
31330;PMS5003;34067;39.548;-76.088;2024-03-08T11:07:58;7;7;
31330;PMS5003;34067;39.548;-76.088;2024-03-08T11:10:26;5;5;
31330;PMS5003;34067;39.548;-76.088;2024-03-08T11:12:54;9;8;
31330;PMS5003;34067;39.548;-76.088;2024-03-08T11:15:23;8;6;
31330;PMS5003;34067;39.548;-76.088;2024-03-08T11:17:52;8;8;
31330;PMS5003;34067;39.548;-76.088;2024-03-08T11:20:20;7;6;
31330;PMS5003;34067;39.548;-76.088;2024-03-08T11:22:52;9;7;
31330;PMS5003;34067;39.548;-76.088;2024-03-08T11:25:36;6;6;
31330;PMS5003;34067;39.548;-76.088;2024-03-08T11:28:07;7;6;
31330;PMS5003;34067;39.548;-76.088;2024-03-08T11:30:37;5;5;
31330;PMS5003;34067;39.548;-76.088;2024-03-08T11:33:05;7;7;
31330;PMS5003;34067;39.548;-76.088;2024-03-08T11:35:39;9;8;
31330;PMS5003;34067;39.548;-76.088;2024-03-08T11:38:08;8;6;
31330;PMS5003;34067;39.548;-76.088;2024-03-08T11:40:37;7;7;
31330;PMS5003;34067;39.548;-76.088;2024-03-08T11:43:06;11;11;
31330;PMS5003;34067;39.548;-76.088;2024-03-08T11:45:34;11;7;
31330;PMS5003;34067;39.548;-76.088;2024-03-08T11:48:02;12;11;
31330;PMS5003;34067;39.548;-76.088;2024-03-08T11:50:31;11;9;
31330;PMS5003;34067;39.548;-76.088;2024-03-08T11:53:00;9;9;
31330;PMS5003;34067;39.548;-76.088;2024-03-08T11:55:29;11;9;
31330;PMS5003;34067;39.548;-76.088;2024-03-08T11:58:01;12;9;
31330;PMS5003;34067;39.548;-76.088;2024-03-08T12:00:29;11;8;
31330;PMS5003;34067;39.548;-76.088;2024-03-08T12:03:05;15;15;
31330;PMS5003;34067;39.548;-76.088;2024-03-08T12:05:34;16;11;
31330;PMS5003;34067;39.548;-76.088;2024-03-08T12:08:02;31;27;
31330;PMS5003;34067;39.548;-76.088;2024-03-08T12:10:31;27;26;
31330;PMS5003;34067;39.548;-76.088;2024-03-08T12:12:59;29;29;
31330;PMS5003;34067;39.548;-76.088;2024-03-08T12:15:27;14;11;
31330;PMS5003;34067;39.548;-76.088;2024-03-08T12:17:56;22;22;
31330;PMS5003;34067;39.548;-76.088;2024-03-08T12:20:25;7;7;
31330;PMS5003;34067;39.548;-76.088;2024-03-08T12:22:55;13;12;
31330;PMS5003;34067;39.548;-76.088;2024-03-08T12:25:26;22;18;
31330;PMS5003;34067;39.548;-76.088;2024-03-08T12:27:54;17;16;
31330;PMS5003;34067;39.548;-76.088;2024-03-08T12:30:23;21;21;
31330;PMS5003;34067;39.548;-76.088;2024-03-08T12:32:53;9;8;
31330;PMS5003;34067;39.548;-76.088;2024-03-08T12:35:22;6;6;
31330;PMS5003;34067;39.548;-76.088;2024-03-08T12:37:52;6;6;
31330;PMS5003;34067;39.548;-76.088;2024-03-08T12:40:25;5;5;
31330;PMS5003;34067;39.548;-76.088;2024-03-08T12:42:54;5;5;
31330;PMS5003;34067;39.548;-76.088;2024-03-08T12:45:22;5;5;
31330;PMS5003;34067;39.548;-76.088;2024-03-08T12:47:50;5;4;
31330;PMS5003;34067;39.548;-76.088;2024-03-08T12:50:19;3;3;
31330;PMS5003;34067;39.548;-76.088;2024-03-08T12:52:47;6;5;
31330;PMS5003;34067;39.548;-76.088;2024-03-08T12:55:16;3;3;
31330;PMS5003;34067;39.548;-76.088;2024-03-08T12:57:44;1;1;
31330;PMS5003;34067;39.548;-76.088;2024-03-08T13:00:12;3;2;
31330;PMS5003;34067;39.548;-76.088;2024-03-08T13:02:40;2;2;
31330;PMS5003;34067;39.548;-76.088;2024-03-08T13:05:08;3;2;
31330;PMS5003;34067;39.548;-76.088;2024-03-08T13:07:37;2;1;
31330;PMS5003;34067;39.548;-76.088;2024-03-08T13:10:05;2;2;
31330;PMS5003;34067;39.548;-76.088;2024-03-08T13:12:34;2;2;
31330;PMS5003;34067;39.548;-76.088;2024-03-08T13:15:02;3;3;
31330;PMS5003;34067;39.548;-76.088;2024-03-08T13:17:30;1;1;
31330;PMS5003;34067;39.548;-76.088;2024-03-08T13:19:58;0;0;
31330;PMS5003;34067;39.548;-76.088;2024-03-08T13:22:27;2;1;
31330;PMS5003;34067;39.548;-76.088;2024-03-08T13:24:55;1;1;
31330;PMS5003;34067;39.548;-76.088;2024-03-08T13:27:23;1;1;
31330;PMS5003;34067;39.548;-76.088;2024-03-08T13:29:51;1;1;
31330;PMS5003;34067;39.548;-76.088;2024-03-08T13:32:19;1;1;
31330;PMS5003;34067;39.548;-76.088;2024-03-08T13:34:47;1;1;
31330;PMS5003;34067;39.548;-76.088;2024-03-08T13:37:16;1;1;
31330;PMS5003;34067;39.548;-76.088;2024-03-08T13:39:44;1;1;
31330;PMS5003;34067;39.548;-76.088;2024-03-08T13:42:12;2;2;
31330;PMS5003;34067;39.548;-76.088;2024-03-08T13:44:43;1;1;
31330;PMS5003;34067;39.548;-76.088;2024-03-08T13:47:12;1;1;
31330;PMS5003;34067;39.548;-76.088;2024-03-08T13:49:40;1;1;
31330;PMS5003;34067;39.548;-76.088;2024-03-08T13:52:08;1;1;
31330;PMS5003;34067;39.548;-76.088;2024-03-08T13:54:36;1;1;
31330;PMS5003;34067;39.548;-76.088;2024-03-08T13:57:05;0;0;
31330;PMS5003;34067;39.548;-76.088;2024-03-08T13:59:33;1;1;
31330;PMS5003;34067;39.548;-76.088;2024-03-08T14:02:01;1;1;
31330;PMS5003;34067;39.548;-76.088;2024-03-08T14:04:29;1;1;
31330;PMS5003;34067;39.548;-76.088;2024-03-08T14:06:57;1;1;
31330;PMS5003;34067;39.548;-76.088;2024-03-08T14:09:25;2;2;
31330;PMS5003;34067;39.548;-76.088;2024-03-08T14:11:53;3;2;
31330;PMS5003;34067;39.548;-76.088;2024-03-08T14:14:22;1;1;
31330;PMS5003;34067;39.548;-76.088;2024-03-08T14:16:50;2;1;
31330;PMS5003;34067;39.548;-76.088;2024-03-08T14:19:18;1;1;
31330;PMS5003;34067;39.548;-76.088;2024-03-08T14:21:46;1;1;
31330;PMS5003;34067;39.548;-76.088;2024-03-08T14:24:15;2;2;
31330;PMS5003;34067;39.548;-76.088;2024-03-08T14:26:42;1;1;
31330;PMS5003;34067;39.548;-76.088;2024-03-08T14:29:10;1;1;
31330;PMS5003;34067;39.548;-76.088;2024-03-08T14:31:38;1;1;
31330;PMS5003;34067;39.548;-76.088;2024-03-08T14:34:07;1;1;
31330;PMS5003;34067;39.548;-76.088;2024-03-08T14:36:35;2;2;
31330;PMS5003;34067;39.548;-76.088;2024-03-08T14:39:03;2;1;
31330;PMS5003;34067;39.548;-76.088;2024-03-08T14:41:31;2;2;
31330;PMS5003;34067;39.548;-76.088;2024-03-08T14:43:59;1;1;
31330;PMS5003;34067;39.548;-76.088;2024-03-08T14:46:28;1;1;
31330;PMS5003;34067;39.548;-76.088;2024-03-08T14:48:56;4;4;
31330;PMS5003;34067;39.548;-76.088;2024-03-08T14:51:25;1;1;
31330;PMS5003;34067;39.548;-76.088;2024-03-08T14:53:52;2;2;
31330;PMS5003;34067;39.548;-76.088;2024-03-08T14:56:21;3;3;
31330;PMS5003;34067;39.548;-76.088;2024-03-08T14:58:49;1;1;
31330;PMS5003;34067;39.548;-76.088;2024-03-08T15:01:17;5;4;
31330;PMS5003;34067;39.548;-76.088;2024-03-08T15:03:46;3;3;
31330;PMS5003;34067;39.548;-76.088;2024-03-08T15:06:14;4;4;
31330;PMS5003;34067;39.548;-76.088;2024-03-08T15:08:42;3;3;
31330;PMS5003;34067;39.548;-76.088;2024-03-08T15:11:10;5;3;
31330;PMS5003;34067;39.548;-76.088;2024-03-08T15:13:38;2;1;
31330;PMS5003;34067;39.548;-76.088;2024-03-08T15:16:06;1;1;
31330;PMS5003;34067;39.548;-76.088;2024-03-08T15:18:35;2;2;
31330;PMS5003;34067;39.548;-76.088;2024-03-08T15:21:04;3;2;
31330;PMS5003;34067;39.548;-76.088;2024-03-08T15:23:33;1;1;
31330;PMS5003;34067;39.548;-76.088;2024-03-08T15:26:02;1;1;
31330;PMS5003;34067;39.548;-76.088;2024-03-08T15:28:30;2;2;
31330;PMS5003;34067;39.548;-76.088;2024-03-08T15:30:58;3;3;
31330;PMS5003;34067;39.548;-76.088;2024-03-08T15:33:27;1;1;
31330;PMS5003;34067;39.548;-76.088;2024-03-08T15:35:55;3;2;
31330;PMS5003;34067;39.548;-76.088;2024-03-08T15:38:23;1;1;
31330;PMS5003;34067;39.548;-76.088;2024-03-08T15:40:51;3;3;
31330;PMS5003;34067;39.548;-76.088;2024-03-08T15:43:19;7;6;
31330;PMS5003;34067;39.548;-76.088;2024-03-08T15:45:47;5;5;
31330;PMS5003;34067;39.548;-76.088;2024-03-08T15:48:15;19;19;
31330;PMS5003;34067;39.548;-76.088;2024-03-08T15:50:43;19;18;
31330;PMS5003;34067;39.548;-76.088;2024-03-08T15:53:12;16;16;
31330;PMS5003;34067;39.548;-76.088;2024-03-08T15:55:40;23;22;
31330;PMS5003;34067;39.548;-76.088;2024-03-08T15:58:08;29;29;
31330;PMS5003;34067;39.548;-76.088;2024-03-08T16:00:36;26;25;
31330;PMS5003;34067;39.548;-76.088;2024-03-08T16:03:05;21;21;
31330;PMS5003;34067;39.548;-76.088;2024-03-08T16:05:32;28;28;
31330;PMS5003;34067;39.548;-76.088;2024-03-08T16:08:01;19;19;
31330;PMS5003;34067;39.548;-76.088;2024-03-08T16:10:29;9;8;
31330;PMS5003;34067;39.548;-76.088;2024-03-08T16:12:57;16;16;
31330;PMS5003;34067;39.548;-76.088;2024-03-08T16:15:25;3;3;
31330;PMS5003;34067;39.548;-76.088;2024-03-08T16:17:53;2;2;
31330;PMS5003;34067;39.548;-76.088;2024-03-08T16:20:21;3;3;